Aeroporto :







RITROVATECI SU...

 
LOGIN :

Iscrizione | Disclaimer

   EN    FR    IT 

 









Sommario :    VFR   VFR Marginale   IFR   IFR Intensivo   IFR Molto Intensivo
Visibilità : 
Base nubi : 
>= 8 km
>= 3000ft
5 / 8 km
1000 / 3000 ft
1500m / 5 km
500 / 1000 ft
800 / 1500m
200 / 500 ft
< 800m
< 200 ft
Simboli :   Temporali  Nebbia  Neve Forte  Precipitazioni Forti  Vento > 20 kt






- Altitudine del aeroporto : 74 ft
- Codice IATA : STX


TISX - Henri E Rohlsen

ULTIMO METAR :
  • 180853Z 35004KT 10SM CLR 25/23 A2984 RMK AO2 SLP103 T02500228 55001

METARs OBSOLETI :
  • 180753Z 02004KT 10SM FEW025 26/23 A2983 RMK AO2 SLP100 T02560228
  • 180653Z 35003KT 10SM CLR 26/23 A2983 RMK AO2 SLP101 T02610228

TAF TISX
Valido dal 18 a 06 ore il 19 a 06 ore UTC


180540Z 1806/1906 03005KT P6SM FEW025
FM181300 07008KT P6SM SCT025
FM182200 03005KT P6SM FEW025
FIR TJZS / America del Nord



MetMap, La meteo Aeronautica in un colpo d'occhio ! - Copyright ORBIFLY Dicembre 2007 - Disclaimer

ORBIFLY MET'MAP TEAM :

Programmazione e sviluppo : Alexandra Zaïnal
Concezione : Baudouin d'Aumeries
Aiuto per la programmazione : Marc-Olivier Méhu
Supporto tecnico e logistico : Manuel Goepfert
Aiuto per la traduzione : Arnaldo La Scala

Contatto : metmap@orbifly.com




FONTI E CREDITI :

   NOAA